Accueil
METAR-TAF:

METAR-TAF

Aéroports :

Henderson-Oxford Airport

Oxford, Caroline du Nord, États-Unis

latitude: 36-21-42N, longitude: 078-31-45W, altitude: 161 m

Observation

Le bulletin a été fait il y a 55 minutes, à 14:55 UTC
Vent calme
Température 0°C
Humidité 64%
Pression 1030 hPa
Visibilité: 16.1 km
Ciel clair

METAR: KHNZ 141455Z AUTO 00000KT 10SM CLR 00/M06 A3042 RMK AO2 T00021063

Heure: 10:50 (15:50 UTC)


TAF: absent

Observations et prévisions météorologiques de plus de 4000 aéroports (messages METAR et TAF).

Les stations disponibles sont représentées par des disques jaunes et rouges sur la carte.

Passer la souris dessus pour voir le nom de la station.

Cliquer dessus pour voir les observations et prévisions météorologiques.

Pour changer de carte: cliquez sur les boutons verts avec une croix noire pour zoomer, sur le bouton vert avec un tiret pour effectuer un zoom arrière, ou sur les flèches vertes pour les cartes adjacentes.


METAR-TAF: